Time;durP1;ratioP1;P1;durP2;ratioP2;P2;SDS_P1;SDS_P2;PMS_P1;PMS_P2;Temp;Humidity;BMP_temperature;BMP_pressure;BME280_temperature;BME280_humidity;BME280_pressure;Samples;Min_cycle;Max_cycle;Signal;HPM_P1;HPM_P2
2023/04/18 00:01:44;;;;;;;0.20;0.20;;;;;;;20.19;41.86;102092.81;5103478;28;20043;-45
2023/04/18 00:04:10;;;;;;;0.20;0.20;;;;;;;20.18;41.82;102091.16;5114928;28;20515;-47
2023/04/18 00:06:36;;;;;;;0.20;0.20;;;;;;;20.16;41.88;102083.09;5097024;28;20065;-46
2023/04/18 00:09:02;;;;;;;0.20;0.20;;;;;;;20.17;41.88;102087.56;5114960;28;20051;-47
2023/04/18 00:11:29;;;;;;;0.20;0.20;;;;;;;20.17;42.00;102086.72;5114712;28;20468;-45
2023/04/18 00:13:56;;;;;;;0.20;0.20;;;;;;;20.16;42.01;102083.09;5097764;28;20054;-49
2023/04/18 00:16:22;;;;;;;0.20;0.20;;;;;;;20.17;41.80;102079.25;5114713;28;20104;-49
2023/04/18 00:18:48;;;;;;;0.22;0.22;;;;;;;20.17;41.89;102078.44;5115307;28;20044;-45
2023/04/18 00:21:16;;;;;;;0.20;0.20;;;;;;;20.17;41.94;102082.03;5115020;28;20054;-44
2023/04/18 00:23:42;;;;;;;0.20;0.20;;;;;;;20.17;41.75;102076.50;5097631;28;20407;-45
2023/04/18 00:26:07;;;;;;;0.20;0.20;;;;;;;20.17;41.89;102075.66;5111381;28;20049;-45
2023/04/18 00:28:33;;;;;;;0.20;0.20;;;;;;;20.16;41.88;102072.03;5095382;28;20043;-46
2023/04/18 00:30:59;;;;;;;0.22;0.22;;;;;;;20.15;41.95;102075.91;5095173;28;20141;-48
2023/04/18 00:33:25;;;;;;;0.20;0.20;;;;;;;20.15;41.95;102075.91;5096883;28;20480;-46
2023/04/18 00:35:51;;;;;;;0.20;0.20;;;;;;;20.16;42.17;102079.50;5115421;28;20142;-45
2023/04/18 00:38:16;;;;;;;0.20;0.20;;;;;;;20.16;41.88;102074.81;5094090;28;20075;-45
2023/04/18 00:40:42;;;;;;;0.20;0.20;;;;;;;20.15;41.88;102078.66;5112198;28;20422;-47
2023/04/18 00:43:08;;;;;;;0.20;0.20;;;;;;;20.16;42.20;102083.09;5114336;28;20189;-46
2023/04/18 00:45:34;;;;;;;0.20;0.20;;;;;;;20.17;42.22;102075.66;5114269;28;20530;-46
2023/04/18 00:48:00;;;;;;;0.20;0.20;;;;;;;20.15;42.04;102073.13;5114894;27;20043;-46
2023/04/18 00:50:26;;;;;;;0.20;0.20;;;;;;;20.15;41.98;102075.06;5089735;28;20044;-45
2023/04/18 00:52:52;;;;;;;0.20;0.20;;;;;;;20.15;42.01;102066.78;5112756;28;20043;-46
2023/04/18 00:55:18;;;;;;;0.20;0.20;;;;;;;20.15;42.06;102070.38;5115108;28;20074;-48
2023/04/18 00:57:44;;;;;;;0.20;0.20;;;;;;;20.14;41.90;102065.94;5114500;28;20070;-47
2023/04/18 01:00:11;;;;;;;0.20;0.20;;;;;;;20.15;42.07;102064.84;5114858;28;20088;-46
2023/04/18 01:02:38;;;;;;;0.20;0.20;;;;;;;20.14;42.10;102065.94;5114087;28;20043;-47
2023/04/18 01:05:05;;;;;;;0.20;0.20;;;;;;;20.13;42.10;102067.03;5096671;28;20095;-47
2023/04/18 01:07:32;;;;;;;0.20;0.20;;;;;;;20.13;41.83;102067.03;5096161;28;20058;-45
2023/04/18 01:09:59;;;;;;;0.20;0.20;;;;;;;20.13;42.19;102067.03;5114861;28;20047;-46
2023/04/18 01:12:24;;;;;;;0.20;0.20;;;;;;;20.14;42.08;102065.13;5114273;27;20083;-45
2023/04/18 01:14:50;;;;;;;0.20;0.20;;;;;;;20.13;42.01;102064.28;5094917;28;20702;-46
2023/04/18 01:17:18;;;;;;;0.20;0.20;;;;;;;20.14;41.86;102062.34;5114683;28;20103;-47
2023/04/18 01:19:45;;;;;;;0.20;0.20;;;;;;;20.13;42.18;102060.69;5095945;28;20274;-47
2023/04/18 01:22:12;;;;;;;0.27;0.27;;;;;;;20.14;42.22;102054.06;5114539;28;20271;-44
2023/04/18 01:24:38;;;;;;;0.20;0.20;;;;;;;20.13;41.97;102055.97;5090578;28;20283;-47
2023/04/18 01:27:04;;;;;;;0.20;0.20;;;;;;;20.12;41.91;102054.31;5103367;28;20047;-46
2023/04/18 01:29:30;;;;;;;0.20;0.20;;;;;;;20.13;42.32;102052.38;5113867;28;20047;-46
2023/04/18 01:31:56;;;;;;;0.20;0.20;;;;;;;20.14;41.76;102045.75;5102619;28;20093;-49
2023/04/18 01:34:22;;;;;;;0.30;0.30;;;;;;;20.13;42.24;102055.16;5095773;28;20074;-46
2023/04/18 01:36:47;;;;;;;0.20;0.20;;;;;;;20.13;42.16;102050.44;5095878;28;20051;-47
2023/04/18 01:39:13;;;;;;;0.25;0.25;;;;;;;20.12;42.26;102042.41;5113773;28;20518;-46
2023/04/18 01:41:40;;;;;;;0.20;0.20;;;;;;;20.12;41.98;102046.03;5095289;28;20414;-45
2023/04/18 01:44:06;;;;;;;0.20;0.20;;;;;;;20.12;42.09;102047.94;5095846;28;20551;-46
2023/04/18 01:46:32;;;;;;;0.30;0.30;;;;;;;20.12;42.13;102039.63;5095666;28;20051;-46
2023/04/18 01:48:57;;;;;;;0.20;0.20;;;;;;;20.12;41.95;102032.19;5089477;28;20067;-46
2023/04/18 01:51:25;;;;;;;0.20;0.20;;;;;;;20.12;41.83;102039.63;5080986;28;20392;-47
2023/04/18 01:53:50;;;;;;;0.20;0.20;;;;;;;20.12;42.21;102036.88;5096063;28;20066;-45
2023/04/18 01:56:16;;;;;;;0.20;0.20;;;;;;;20.12;41.99;102031.34;5094686;28;20055;-45
2023/04/18 01:58:42;;;;;;;0.20;0.20;;;;;;;20.11;41.96;102026.91;5093780;28;20313;-45
2023/04/18 02:01:08;;;;;;;0.20;0.20;;;;;;;20.12;42.19;102028.56;5075355;28;20047;-47
2023/04/18 02:03:34;;;;;;;0.20;0.20;;;;;;;20.11;42.03;102030.50;5104264;28;20044;-46
2023/04/18 02:06:01;;;;;;;0.20;0.20;;;;;;;20.11;41.95;102030.50;5110304;28;20039;-45
2023/04/18 02:08:27;;;;;;;0.20;0.20;;;;;;;20.11;42.12;102029.66;5114097;28;20693;-47
2023/04/18 02:10:52;;;;;;;0.20;0.20;;;;;;;20.11;42.28;102027.75;5113791;28;20066;-46
2023/04/18 02:13:18;;;;;;;0.20;0.20;;;;;;;20.10;42.24;102023.31;5113736;28;20059;-46
2023/04/18 02:15:44;;;;;;;0.20;0.20;;;;;;;20.11;41.96;102024.13;5113143;28;20544;-50
2023/04/18 02:18:10;;;;;;;0.22;0.22;;;;;;;20.10;42.21;102022.47;5113576;28;20054;-46
2023/04/18 02:20:36;;;;;;;0.20;0.20;;;;;;;20.11;41.78;102032.44;5113469;28;20067;-45
2023/04/18 02:23:03;;;;;;;0.20;0.20;;;;;;;20.10;42.18;102031.59;5112353;27;20496;-45
2023/04/18 02:25:29;;;;;;;0.20;0.20;;;;;;;20.10;41.89;102028.00;5082694;28;20078;-45
2023/04/18 02:27:56;;;;;;;0.20;0.20;;;;;;;20.10;42.02;102019.72;5109291;28;20464;-46
2023/04/18 02:30:22;;;;;;;0.20;0.20;;;;;;;20.10;42.20;102022.47;5112646;28;20048;-45
2023/04/18 02:32:50;;;;;;;0.20;0.20;;;;;;;20.10;42.10;102026.06;5112730;27;20797;-46
2023/04/18 02:35:18;;;;;;;0.30;0.30;;;;;;;20.09;42.33;102016.13;5095777;28;20059;-45
2023/04/18 02:37:43;;;;;;;0.20;0.20;;;;;;;20.10;42.34;102022.47;5084132;28;20087;-48
2023/04/18 02:40:09;;;;;;;0.20;0.20;;;;;;;20.10;42.20;102026.06;5092882;28;20127;-48
2023/04/18 02:42:35;;;;;;;0.20;0.20;;;;;;;20.10;42.12;102030.78;5102995;28;20452;-45
2023/04/18 02:45:01;;;;;;;0.20;0.20;;;;;;;20.09;42.18;102029.13;5113703;28;20070;-49
2023/04/18 02:47:26;;;;;;;0.20;0.20;;;;;;;20.09;42.02;102023.59;5094515;28;20047;-45
2023/04/18 02:49:52;;;;;;;0.10;0.10;;;;;;;20.09;41.96;102024.41;5093152;28;20052;-47
2023/04/18 02:52:18;;;;;;;0.20;0.20;;;;;;;20.09;42.01;102023.59;5112224;28;20437;-46
2023/04/18 02:54:44;;;;;;;0.20;0.20;;;;;;;20.08;42.21;102024.66;5106881;28;20104;-46
2023/04/18 02:57:09;;;;;;;0.20;0.20;;;;;;;20.09;42.30;102029.94;5092475;28;20047;-46
2023/04/18 02:59:35;;;;;;;0.20;0.20;;;;;;;20.08;42.10;102028.28;5092784;28;20144;-45
2023/04/18 03:02:00;;;;;;;0.20;0.20;;;;;;;20.09;42.42;102020.81;5096663;28;20039;-45
2023/04/18 03:04:26;;;;;;;0.20;0.20;;;;;;;20.08;41.97;102031.03;5112040;28;20066;-46
2023/04/18 03:06:52;;;;;;;0.20;0.20;;;;;;;20.08;42.21;102025.50;5112269;28;20059;-45
2023/04/18 03:09:18;;;;;;;0.20;0.20;;;;;;;20.08;42.13;102030.19;5112632;28;20046;-46
2023/04/18 03:11:43;;;;;;;0.20;0.20;;;;;;;20.08;42.06;102025.50;5112666;28;20491;-45
2023/04/18 03:14:09;;;;;;;0.20;0.20;;;;;;;20.08;42.08;102025.50;5111569;28;20047;-45
2023/04/18 03:16:35;;;;;;;0.20;0.20;;;;;;;20.08;41.95;102028.28;5092181;28;20480;-46
2023/04/18 03:19:00;;;;;;;0.40;0.40;;;;;;;20.08;42.22;102032.94;5091817;28;20047;-45
2023/04/18 03:21:26;;;;;;;0.20;0.20;;;;;;;20.07;42.05;102029.34;5093062;28;20047;-45
2023/04/18 03:23:52;;;;;;;0.20;0.20;;;;;;;20.08;42.01;102039.34;5110990;28;20443;-45
2023/04/18 03:26:18;;;;;;;0.20;0.20;;;;;;;20.07;42.28;102034.88;5094134;28;20043;-45
2023/04/18 03:28:43;;;;;;;0.20;0.20;;;;;;;20.08;42.23;102038.47;5111949;28;20088;-47
2023/04/18 03:31:09;;;;;;;0.20;0.20;;;;;;;20.08;42.20;102030.19;5112729;28;20076;-48
2023/04/18 03:33:35;;;;;;;0.20;0.20;;;;;;;20.08;42.21;102035.72;5112237;28;20039;-46
2023/04/18 03:36:01;;;;;;;0.20;0.20;;;;;;;20.07;42.12;102039.59;5097813;27;20047;-45
2023/04/18 03:38:26;;;;;;;0.20;0.20;;;;;;;20.07;42.19;102042.34;5097484;28;20047;-45
2023/04/18 03:40:52;;;;;;;0.25;0.25;;;;;;;20.07;42.41;102034.88;5115859;28;20069;-47
2023/04/18 03:43:19;;;;;;;0.20;0.20;;;;;;;20.07;42.24;102037.66;5115575;28;20062;-48
2023/04/18 03:45:46;;;;;;;0.20;0.20;;;;;;;20.08;42.16;102039.34;5116153;28;20082;-45
2023/04/18 03:48:13;;;;;;;0.20;0.20;;;;;;;20.08;42.05;102032.94;5115544;28;20043;-46
2023/04/18 03:50:38;;;;;;;0.22;0.22;;;;;;;20.06;42.27;102035.97;5121863;27;20363;-45
2023/04/18 03:53:04;;;;;;;0.75;0.50;;;;;;;20.05;42.22;102037.91;5116012;28;20253;-45
2023/04/18 03:55:30;;;;;;;0.22;0.22;;;;;;;20.06;41.99;102038.75;5115295;28;20104;-47
2023/04/18 03:57:57;;;;;;;0.20;0.20;;;;;;;20.06;42.27;102044.28;5115276;28;20066;-45
2023/04/18 04:00:24;;;;;;;0.20;0.20;;;;;;;20.06;42.05;102035.97;5116118;28;20301;-45
2023/04/18 04:02:50;;;;;;;0.20;0.20;;;;;;;20.05;42.19;102040.69;5115305;28;20062;-45
2023/04/18 04:05:15;;;;;;;0.20;0.20;;;;;;;20.06;42.20;102041.50;5115465;28;20043;-45
2023/04/18 04:07:41;;;;;;;0.20;0.20;;;;;;;20.06;42.07;102044.28;5096981;28;20054;-47
2023/04/18 04:10:07;;;;;;;0.20;0.20;;;;;;;20.06;42.24;102041.50;5097092;28;20433;-45
2023/04/18 04:12:33;;;;;;;0.20;0.20;;;;;;;20.05;42.02;102048.97;5115440;28;20475;-45
2023/04/18 04:14:59;;;;;;;0.20;0.20;;;;;;;20.05;41.97;102045.38;5114954;28;20048;-46
2023/04/18 04:17:25;;;;;;;0.20;0.20;;;;;;;20.06;41.91;102047.03;5115143;28;20047;-45
2023/04/18 04:19:51;;;;;;;0.20;0.20;;;;;;;20.05;42.05;102056.44;5115149;28;20170;-45
2023/04/18 04:22:16;;;;;;;0.20;0.20;;;;;;;20.03;42.18;102051.19;5115630;28;20164;-44
2023/04/18 04:24:42;;;;;;;0.20;0.20;;;;;;;20.03;42.17;102056.72;5115594;28;20088;-46
2023/04/18 04:27:09;;;;;;;0.20;0.20;;;;;;;20.04;42.11;102063.91;5095132;28;20478;-47
2023/04/18 04:29:37;;;;;;;0.20;0.20;;;;;;;20.05;42.28;102061.97;5114837;28;20067;-48
2023/04/18 04:32:04;;;;;;;0.20;0.20;;;;;;;20.05;41.97;102064.75;5114580;28;20149;-47
2023/04/18 04:34:30;;;;;;;0.20;0.20;;;;;;;20.05;42.21;102068.34;5106558;28;20092;-49
2023/04/18 04:36:56;;;;;;;0.20;0.20;;;;;;;20.05;41.94;102067.50;5114655;28;20058;-48
2023/04/18 04:39:21;;;;;;;0.20;0.20;;;;;;;20.05;41.97;102065.56;5095880;28;20471;-49
2023/04/18 04:41:48;;;;;;;0.20;0.20;;;;;;;20.06;42.04;102069.16;5115443;28;20054;-47
2023/04/18 04:44:16;;;;;;;0.20;0.20;;;;;;;20.05;42.19;102064.75;5080084;28;20058;-44
2023/04/18 04:46:43;;;;;;;;;;;;;;;20.05;42.12;102073.88;5115388;27;20479;-48
2023/04/18 04:49:10;;;;;;;0.30;0.30;;;;;;;20.05;41.77;102082.16;5115675;27;19974;-48
2023/04/18 04:51:36;;;;;;;0.30;0.30;;;;;;;20.05;41.82;102078.56;5115888;27;20354;-48
2023/04/18 04:54:02;;;;;;;0.20;0.20;;;;;;;20.07;39.84;102083.81;5114989;28;20167;-45
2023/04/18 04:56:28;;;;;;;0.20;0.20;;;;;;;20.09;39.20;102081.66;5095194;28;20069;-45
2023/04/18 04:58:54;;;;;;;0.20;0.20;;;;;;;20.08;39.67;102085.50;5076049;28;20143;-49
2023/04/18 05:01:20;;;;;;;0.32;0.32;;;;;;;20.08;38.23;102088.25;5093636;28;20075;-47
2023/04/18 05:03:46;;;;;;;0.20;0.20;;;;;;;20.08;38.15;102091.03;5109518;28;20138;-50
2023/04/18 05:06:13;;;;;;;0.22;0.22;;;;;;;20.07;37.86;102090.19;5115153;28;20047;-46
2023/04/18 05:08:38;;;;;;;0.20;0.20;;;;;;;20.08;37.76;102093.78;5114029;28;20071;-49
2023/04/18 05:11:04;;;;;;;0.30;0.30;;;;;;;20.08;37.70;102088.25;5114910;28;20054;-45
2023/04/18 05:13:30;;;;;;;0.20;0.20;;;;;;;20.08;37.53;102093.78;5114035;28;20058;-49
2023/04/18 05:15:58;;;;;;;0.20;0.20;;;;;;;20.05;37.57;102101.53;5113932;28;20758;-47
2023/04/18 05:18:23;;;;;;;0.20;0.20;;;;;;;20.04;38.51;102104.56;5114002;28;20095;-50
2023/04/18 05:20:49;;;;;;;0.35;0.35;;;;;;;20.05;37.12;102101.53;5114403;28;20074;-46
2023/04/18 05:23:15;;;;;;;0.38;0.38;;;;;;;20.05;37.00;102104.28;5108510;28;20044;-49
2023/04/18 05:25:40;;;;;;;0.22;0.22;;;;;;;20.04;37.70;102102.63;5105555;28;20043;-47
2023/04/18 05:28:07;;;;;;;0.20;0.20;;;;;;;20.05;39.39;102109.00;5099267;28;20642;-48
2023/04/18 05:30:32;;;;;;;0.20;0.20;;;;;;;20.04;39.95;102110.91;5114161;28;20043;-45
2023/04/18 05:32:58;;;;;;;0.20;0.20;;;;;;;20.03;41.15;102114.78;5106115;27;20421;-47
2023/04/18 05:35:24;;;;;;;0.20;0.20;;;;;;;20.02;41.66;102115.03;5102781;28;20043;-47
2023/04/18 05:37:50;;;;;;;0.30;0.30;;;;;;;20.02;41.48;102120.56;5109897;28;20046;-55
2023/04/18 05:40:16;;;;;;;0.20;0.20;;;;;;;20.01;41.68;102124.41;5101940;27;20070;-48
2023/04/18 05:42:41;;;;;;;0.20;0.20;;;;;;;20.00;41.63;102129.13;5113992;28;20057;-48
2023/04/18 05:45:07;;;;;;;0.20;0.20;;;;;;;19.99;41.61;102121.94;5104792;28;20051;-47
2023/04/18 05:47:33;;;;;;;0.20;0.20;;;;;;;19.99;41.94;102130.22;5085802;28;20090;-46
2023/04/18 05:49:59;;;;;;;0.25;0.25;;;;;;;20.00;41.54;102125.53;5109935;28;20051;-47
2023/04/18 05:52:25;;;;;;;0.20;0.20;;;;;;;20.00;41.61;102123.59;5113084;28;20842;-46
2023/04/18 05:54:51;;;;;;;0.20;0.20;;;;;;;20.00;41.58;102126.34;5113757;28;20061;-47
2023/04/18 05:57:17;;;;;;;0.30;0.30;;;;;;;20.02;41.21;102137.16;5092101;28;20048;-47
2023/04/18 05:59:42;;;;;;;0.20;0.20;;;;;;;20.00;41.56;102136.59;5104236;28;20131;-49
2023/04/18 06:02:12;;;;;;;0.30;0.30;;;;;;;19.99;41.62;102144.03;5112864;28;20043;-45
2023/04/18 06:04:39;;;;;;;0.20;0.20;;;;;;;19.99;41.86;102138.50;5102978;28;20442;-45
2023/04/18 06:07:06;;;;;;;0.20;0.20;;;;;;;20.00;41.89;102147.63;5113819;28;20630;-48
2023/04/18 06:09:31;;;;;;;0.20;0.20;;;;;;;19.99;41.85;102148.72;5113372;28;20475;-47
2023/04/18 06:11:57;;;;;;;0.30;0.30;;;;;;;20.00;41.45;102150.41;5111394;27;20085;-46
2023/04/18 06:14:23;;;;;;;0.20;0.20;;;;;;;20.00;41.58;102150.41;5107094;27;20043;-45
2023/04/18 06:16:49;;;;;;;0.20;0.20;;;;;;;20.00;41.83;102147.63;5103008;28;20285;-45
2023/04/18 06:19:14;;;;;;;0.28;0.28;;;;;;;20.00;41.57;102151.25;5103839;28;20040;-47
2023/04/18 06:21:41;;;;;;;0.20;0.20;;;;;;;20.00;41.53;102151.25;5074896;28;20563;-44
2023/04/18 06:24:07;;;;;;;0.30;0.30;;;;;;;20.01;41.57;102160.38;5111850;27;20050;-48
2023/04/18 06:26:33;;;;;;;0.20;0.20;;;;;;;20.01;41.71;102163.97;5102969;28;20039;-47
2023/04/18 06:28:59;;;;;;;0.20;0.20;;;;;;;20.00;41.79;102155.94;5091851;28;20047;-45
2023/04/18 06:31:25;;;;;;;0.20;0.20;;;;;;;19.99;41.73;102157.00;5066241;27;20051;-48
2023/04/18 06:33:51;;;;;;;0.28;0.28;;;;;;;19.98;41.71;102164.47;5074526;27;20181;-46
2023/04/18 06:36:18;;;;;;;0.20;0.20;;;;;;;19.99;41.76;102168.94;5109562;27;20280;-44
2023/04/18 06:38:43;;;;;;;0.20;0.20;;;;;;;19.99;41.66;102160.63;5092982;28;20070;-45
2023/04/18 06:41:09;;;;;;;0.20;0.20;;;;;;;19.98;41.66;102164.47;5093842;28;20358;-46
2023/04/18 06:43:35;;;;;;;0.22;0.22;;;;;;;19.98;41.66;102158.94;5079469;27;20110;-46
2023/04/18 06:46:03;;;;;;;0.20;0.20;;;;;;;19.98;41.75;102161.69;5106545;27;20498;-45
2023/04/18 06:48:29;;;;;;;;;;;;;;;19.99;41.77;102168.94;5119191;27;20047;-46
2023/04/18 06:50:55;;;;;;;0.20;0.20;;;;;;;19.99;42.13;102165.31;5096513;27;20017;-44
2023/04/18 06:53:21;;;;;;;0.20;0.20;;;;;;;20.00;41.99;102172.53;5110910;28;20470;-45
2023/04/18 06:55:46;;;;;;;0.20;0.20;;;;;;;20.00;41.74;102170.59;5096668;28;20052;-46
2023/04/18 06:58:14;;;;;;;0.20;0.20;;;;;;;19.99;42.09;102160.63;5106942;27;20115;-44
2023/04/18 07:00:41;;;;;;;0.20;0.20;;;;;;;19.99;42.18;102162.53;5078781;28;20043;-45
2023/04/18 07:03:10;;;;;;;0.20;0.20;;;;;;;19.99;41.98;102168.94;5103232;27;20046;-49
2023/04/18 07:05:38;;;;;;;0.20;0.20;;;;;;;19.99;42.18;102160.63;5090269;27;20054;-46
2023/04/18 07:08:04;;;;;;;0.20;0.20;;;;;;;20.03;41.72;102170.09;5100865;27;20107;-46
2023/04/18 07:10:30;;;;;;;0.20;0.20;;;;;;;20.04;41.93;102171.75;5102338;27;20039;-46
2023/04/18 07:12:55;;;;;;;0.20;0.20;;;;;;;20.04;42.17;102174.53;5108432;27;20239;-46
2023/04/18 07:15:21;;;;;;;0.20;0.20;;;;;;;20.05;41.45;102175.34;5102569;27;20043;-46
2023/04/18 07:17:47;;;;;;;0.30;0.30;;;;;;;20.05;41.18;102178.13;5103746;27;20066;-46
2023/04/18 07:20:13;;;;;;;0.20;0.20;;;;;;;20.07;41.01;102173.16;5102025;27;20163;-46
2023/04/18 07:22:40;;;;;;;0.40;0.40;;;;;;;20.07;41.30;102177.84;5083498;27;20058;-46
2023/04/18 07:25:06;;;;;;;0.25;0.25;;;;;;;20.07;40.84;102170.38;5083139;27;20043;-45
2023/04/18 07:27:35;;;;;;;0.20;0.20;;;;;;;20.07;41.22;102180.63;5100355;27;20058;-47
2023/04/18 07:30:02;;;;;;;0.20;0.20;;;;;;;20.07;40.58;102178.69;5085442;28;20039;-50
2023/04/18 07:32:28;;;;;;;0.20;0.20;;;;;;;20.09;40.74;102176.50;5102537;27;20131;-50
2023/04/18 07:34:56;;;;;;;0.20;0.20;;;;;;;20.09;41.04;102170.16;5104318;27;20074;-46
2023/04/18 07:37:22;;;;;;;0.20;0.20;;;;;;;20.08;41.44;102183.16;5104735;27;20063;-45
2023/04/18 07:39:47;;;;;;;0.20;0.20;;;;;;;20.08;41.46;102180.38;5105394;27;20050;-50
2023/04/18 07:42:13;;;;;;;0.20;0.20;;;;;;;20.09;40.95;102181.22;5105788;27;20134;-46
2023/04/18 07:44:39;;;;;;;0.20;0.20;;;;;;;20.09;41.20;102184.81;5094402;27;20460;-47
2023/04/18 07:47:08;;;;;;;0.20;0.20;;;;;;;20.09;41.10;102176.50;5085400;27;22857;-45
2023/04/18 07:49:34;;;;;;;0.20;0.20;;;;;;;20.10;41.99;102180.13;5106073;27;20147;-45
2023/04/18 07:52:00;;;;;;;0.20;0.20;;;;;;;20.10;41.75;102177.34;5082118;27;20043;-47
2023/04/18 07:54:26;;;;;;;0.20;0.20;;;;;;;20.10;41.33;102180.94;5100004;27;20531;-45
2023/04/18 07:56:51;;;;;;;0.30;0.30;;;;;;;20.13;40.67;102176.84;5073344;28;20047;-46
2023/04/18 07:59:17;;;;;;;0.20;0.20;;;;;;;20.15;40.30;102182.94;5083331;27;20435;-45
2023/04/18 08:01:43;;;;;;;0.22;0.22;;;;;;;20.11;39.61;102181.78;5085886;27;20058;-45
2023/04/18 08:04:08;;;;;;;0.20;0.20;;;;;;;20.11;40.00;102190.06;5073204;27;20051;-46
2023/04/18 08:06:34;;;;;;;0.20;0.20;;;;;;;20.09;38.81;102190.34;5095528;27;20050;-46
2023/04/18 08:09:04;;;;;;;0.20;0.20;;;;;;;20.10;39.24;102196.72;5097971;27;20047;-46
2023/04/18 08:11:31;;;;;;;0.20;0.20;;;;;;;20.09;39.18;102195.88;5082069;27;20298;-47
2023/04/18 08:13:56;;;;;;;0.20;0.20;;;;;;;20.10;39.01;102203.06;5065677;28;20047;-45
2023/04/18 08:16:22;;;;;;;0.20;0.20;;;;;;;20.08;41.38;102199.75;5097684;27;20111;-45
2023/04/18 08:18:48;;;;;;;0.30;0.30;;;;;;;20.09;41.10;102203.34;5105584;28;20043;-46
2023/04/18 08:21:13;;;;;;;0.20;0.20;;;;;;;20.08;39.91;102205.28;5101344;27;20138;-45
2023/04/18 08:23:39;;;;;;;0.20;0.20;;;;;;;20.08;41.81;102199.75;5104635;27;20043;-46
2023/04/18 08:26:05;;;;;;;0.20;0.20;;;;;;;20.08;41.79;102205.28;5076744;28;20047;-48
2023/04/18 08:28:30;;;;;;;0.20;0.20;;;;;;;20.08;41.67;102205.28;5102249;28;20047;-46
2023/04/18 08:30:56;;;;;;;0.20;0.20;;;;;;;20.09;41.70;102206.09;5099467;27;20042;-46
2023/04/18 08:33:23;;;;;;;0.20;0.20;;;;;;;20.09;41.54;102203.34;5101660;28;20047;-46
2023/04/18 08:35:50;;;;;;;0.20;0.20;;;;;;;20.09;41.60;102200.56;5080596;27;20039;-46
2023/04/18 08:38:17;;;;;;;0.20;0.20;;;;;;;20.08;41.63;102199.75;5084016;28;20229;-45
2023/04/18 08:40:43;;;;;;;0.20;0.20;;;;;;;20.08;41.63;102196.09;5085434;27;20134;-45
2023/04/18 08:43:12;;;;;;;0.20;0.20;;;;;;;20.09;41.77;102206.09;5085354;27;20047;-45
2023/04/18 08:45:40;;;;;;;0.20;0.20;;;;;;;20.08;41.68;102205.28;5068606;27;20198;-46
2023/04/18 08:48:06;;;;;;;0.20;0.20;;;;;;;20.08;41.92;102204.41;5078790;27;20043;-46
2023/04/18 08:50:32;;;;;;;0.20;0.20;;;;;;;20.07;41.82;102205.50;5083060;28;20735;-45
2023/04/18 08:52:59;;;;;;;0.20;0.20;;;;;;;20.08;42.07;102207.16;5093216;27;20040;-45
2023/04/18 08:55:25;;;;;;;0.20;0.20;;;;;;;19.93;38.87;102210.56;5086575;27;20043;-43
2023/04/18 08:57:54;;;;;;;0.30;0.30;;;;;;;20.01;40.60;102210.97;5078896;28;20155;-48
2023/04/18 09:00:21;;;;;;;0.20;0.20;;;;;;;20.04;41.06;102204.09;5103397;28;20550;-44
2023/04/18 09:02:48;;;;;;;0.20;0.20;;;;;;;20.05;41.37;102209.38;5098201;27;20109;-45
2023/04/18 09:05:18;;;;;;;0.20;0.20;;;;;;;20.08;41.26;102202.50;5078303;28;20055;-47
2023/04/18 09:07:44;;;;;;;0.30;0.30;;;;;;;20.10;41.27;102207.78;5101852;28;20086;-43
2023/04/18 09:10:11;;;;;;;0.20;0.20;;;;;;;20.11;41.43;102212.19;5103681;27;20617;-45
2023/04/18 09:12:48;;;;;;;0.20;0.20;;;;;;;20.11;41.22;102204.72;5106542;27;20043;-45
2023/04/18 09:15:16;;;;;;;0.20;0.20;;;;;;;20.11;41.39;102207.50;5074021;28;20071;-45
2023/04/18 09:17:47;;;;;;;0.20;0.20;;;;;;;20.12;41.24;102206.44;5103875;27;20498;-45
2023/04/18 09:20:25;;;;;;;0.20;0.20;;;;;;;20.13;41.41;102210.03;5104828;27;20047;-45
2023/04/18 09:22:53;;;;;;;0.20;0.20;;;;;;;20.13;41.51;102208.09;5074789;28;20105;-46
2023/04/18 09:25:37;;;;;;;0.20;0.20;;;;;;;20.13;41.48;102205.34;5107974;27;20051;-43
2023/04/18 09:28:28;;;;;;;0.20;0.20;;;;;;;20.14;41.47;102206.16;5086768;27;20050;-44
2023/04/18 09:30:56;;;;;;;0.20;0.20;;;;;;;20.13;41.54;102205.34;5085643;27;20209;-44
2023/04/18 09:33:27;;;;;;;0.20;0.20;;;;;;;20.13;41.37;102205.34;5082420;28;20252;-43
2023/04/18 09:35:53;;;;;;;0.25;0.25;;;;;;;20.14;41.77;102208.94;5108445;27;20035;-44
2023/04/18 09:38:19;;;;;;;0.25;0.25;;;;;;;20.15;41.59;102205.06;5104162;27;20063;-45
2023/04/18 09:40:45;;;;;;;0.20;0.20;;;;;;;20.15;41.74;102199.53;5106266;27;20040;-44
2023/04/18 09:43:19;;;;;;;0.20;0.20;;;;;;;20.16;41.72;102201.19;5106324;27;20643;-45
2023/04/18 09:45:47;;;;;;;0.20;0.20;;;;;;;20.16;41.95;102206.72;5084573;28;20427;-45
2023/04/18 09:48:13;;;;;;;;;;;;;;;20.15;41.63;102197.59;5084202;28;20039;-44
2023/04/18 09:50:40;;;;;;;0.20;0.20;;;;;;;20.16;41.72;102199.25;5100277;27;19923;-44
2023/04/18 09:53:07;;;;;;;0.30;0.30;;;;;;;20.15;41.66;102194.84;5097079;27;20042;-44
2023/04/18 09:55:33;;;;;;;0.20;0.20;;;;;;;20.16;41.66;102190.13;5099849;27;20466;-44
2023/04/18 09:57:59;;;;;;;0.20;0.20;;;;;;;20.13;41.56;102191.50;5095718;27;20047;-45
2023/04/18 10:00:26;;;;;;;0.20;0.20;;;;;;;20.13;41.80;102194.28;5085280;28;20043;-45
2023/04/18 10:03:06;;;;;;;0.20;0.20;;;;;;;20.14;41.80;102195.09;5097291;27;20436;-46
2023/04/18 10:05:33;;;;;;;0.20;0.20;;;;;;;20.13;41.69;102185.97;5107845;27;20039;-43
2023/04/18 10:07:59;;;;;;;0.30;0.30;;;;;;;20.13;41.66;102188.75;5100395;27;20168;-44
2023/04/18 10:10:25;;;;;;;0.30;0.30;;;;;;;20.15;41.66;102197.59;5093666;27;20046;-43
2023/04/18 10:12:55;;;;;;;0.20;0.20;;;;;;;20.15;40.79;102194.84;5078811;28;20565;-44
2023/04/18 10:15:22;;;;;;;0.30;0.30;;;;;;;20.15;39.85;102191.25;5079457;28;20047;-45
2023/04/18 10:17:53;;;;;;;0.20;0.20;;;;;;;20.14;39.96;102195.94;5054547;28;20059;-44
2023/04/18 10:20:31;;;;;;;0.20;0.20;;;;;;;20.15;40.45;102197.59;5107348;27;20088;-46
2023/04/18 10:22:58;;;;;;;0.30;0.30;;;;;;;19.88;38.90;102194.75;5082943;28;20126;-49
2023/04/18 10:28:14;;;;;;;0.20;0.20;;;;;;;20.08;40.60;102188.69;5133822;27;20490;-44
2023/04/18 10:33:35;;;;;;;0.20;0.20;;;;;;;20.12;40.20;102187.06;5134281;27;20128;-43
2023/04/18 10:38:48;;;;;;;0.20;0.20;;;;;;;20.11;40.02;102190.91;5148095;27;20378;-45
2023/04/18 10:41:22;;;;;;;0.20;0.20;;;;;;;20.13;41.11;102185.13;5136751;27;20038;-43
2023/04/18 10:49:26;;;;;;;0.20;0.20;;;;;;;20.17;41.05;102189.91;5158544;27;20129;-45
2023/04/18 10:51:57;;;;;;;0.30;0.30;;;;;;;20.16;41.21;102184.59;5129590;27;20053;-42
2023/04/18 10:54:46;;;;;;;0.20;0.20;;;;;;;20.14;41.06;102176.56;5122870;27;20046;-44
2023/04/18 10:57:12;;;;;;;0.20;0.20;;;;;;;20.13;40.91;102174.91;5115597;27;20038;-44
2023/04/18 10:59:43;;;;;;;0.20;0.20;;;;;;;20.15;41.18;102166.34;5117519;27;20042;-42
2023/04/18 11:02:27;;;;;;;0.20;0.20;;;;;;;20.15;40.94;102167.19;5115393;27;20130;-46
2023/04/18 11:04:55;;;;;;;0.20;0.20;;;;;;;20.15;39.74;102166.34;5119368;27;20039;-46
2023/04/18 11:07:38;;;;;;;0.20;0.20;;;;;;;20.15;40.61;102169.09;5140563;27;20042;-45
2023/04/18 11:10:05;;;;;;;0.40;0.40;;;;;;;20.15;39.58;102166.34;5114375;27;20050;-46
2023/04/18 11:12:34;;;;;;;0.20;0.20;;;;;;;20.16;39.67;102171.59;5113423;27;20347;-46
2023/04/18 11:15:03;;;;;;;0.20;0.20;;;;;;;20.15;40.61;102167.19;5132442;27;20069;-44
2023/04/18 11:17:32;;;;;;;0.20;0.20;;;;;;;20.16;41.06;102162.47;5117912;27;20058;-44
2023/04/18 11:20:00;;;;;;;0.20;0.20;;;;;;;20.15;39.87;102164.41;5115934;27;20448;-44
2023/04/18 11:22:26;;;;;;;0.30;0.30;;;;;;;20.15;40.41;102166.34;5120039;27;20507;-44
2023/04/18 11:24:56;;;;;;;0.20;0.20;;;;;;;20.16;40.61;102160.53;5129390;27;20053;-47
2023/04/18 11:27:24;;;;;;;0.20;0.20;;;;;;;20.17;40.44;102161.41;5113486;27;20088;-44
2023/04/18 11:29:53;;;;;;;0.20;0.20;;;;;;;20.17;39.53;102164.19;5117312;27;20058;-44
2023/04/18 11:32:21;;;;;;;0.20;0.20;;;;;;;20.17;41.22;102159.47;5127213;27;20415;-44
2023/04/18 11:34:50;;;;;;;0.20;0.20;;;;;;;20.17;40.89;102151.19;5103471;27;20318;-45
2023/04/18 11:37:15;;;;;;;0.30;0.30;;;;;;;20.17;40.18;102147.56;5118288;27;20092;-42
2023/04/18 11:39:42;;;;;;;0.20;0.20;;;;;;;20.17;40.20;102156.72;5118385;27;20062;-44